Time;durP1;ratioP1;P1;durP2;ratioP2;P2;SDS_P1;SDS_P2;PMS_P1;PMS_P2;Temp;Humidity;BMP_temperature;BMP_pressure;BME280_temperature;BME280_humidity;BME280_pressure;Samples;Min_cycle;Max_cycle;Signal;HPM_P1;HPM_P2
2023/01/12 00:00:07;;;;;;;9.30;1.20;;;;;;;7.76;76.01;100011.06;10492125;28;20191;-85
2023/01/12 00:05:14;;;;;;;6.17;1.20;;;;;;;7.84;75.26;100008.41;10496438;28;20273;-86
2023/01/12 00:10:16;;;;;;;6.63;1.50;;;;;;;7.94;75.60;100006.56;10484621;28;20195;-85
2023/01/12 00:16:33;;;;;;;8.43;1.73;;;;;;;7.94;75.11;100000.97;10501724;28;20245;-82
2023/01/12 00:20:46;;;;;;;8.80;1.30;;;;;;;7.41;75.81;100004.09;10493380;28;20196;-83
2023/01/12 00:25:53;;;;;;;8.80;1.47;;;;;;;7.68;75.26;100007.00;10462500;28;20374;-82
2023/01/12 00:30:59;;;;;;;8.33;1.23;;;;;;;7.78;74.50;100001.25;10504041;28;20192;-84
2023/01/12 00:36:07;;;;;;;9.27;1.20;;;;;;;7.84;75.22;100008.41;10503779;28;20269;-83
2023/01/12 00:45:20;;;;;;;9.27;1.33;;;;;;;7.22;78.26;99990.13;10476174;28;20199;-84
2023/01/12 00:46:33;;;;;;;8.40;1.17;;;;;;;7.65;77.09;99993.66;10467910;28;20276;-83
2023/01/12 00:51:36;;;;;;;5.17;1.20;;;;;;;7.24;77.74;99987.03;10486531;28;20225;-84
2023/01/12 00:56:38;;;;;;;3.87;0.83;;;;;;;7.88;76.44;99975.94;10500243;28;20188;-84
2023/01/12 01:01:40;;;;;;;4.77;1.40;;;;;;;8.07;75.60;99973.09;10485804;28;20461;-84
2023/01/12 01:06:42;;;;;;;3.13;1.30;;;;;;;7.68;78.12;99970.72;10484987;28;20241;-86
2023/01/12 01:11:45;;;;;;;6.17;1.30;;;;;;;7.45;80.80;99971.66;10486225;28;20315;-83
2023/01/12 01:16:47;;;;;;;9.77;1.77;;;;;;;7.99;76.67;99986.91;10502199;28;20191;-84
2023/01/12 01:21:49;;;;;;;6.53;1.10;;;;;;;7.51;79.22;99973.22;10502427;28;20183;-84
2023/01/12 01:26:51;;;;;;;5.27;1.40;;;;;;;7.44;79.52;99995.94;10462461;28;20216;-84
2023/01/12 01:31:54;;;;;;;5.87;1.07;;;;;;;7.50;78.93;99985.50;10454208;28;20203;-84
2023/01/12 01:36:58;;;;;;;7.00;1.20;;;;;;;7.59;80.15;99988.47;10473743;28;20629;-83
2023/01/12 01:42:00;;;;;;;6.73;1.33;;;;;;;7.70;80.01;99985.19;10465233;28;20255;-83
2023/01/12 01:47:07;;;;;;;8.00;1.37;;;;;;;7.43;80.31;99979.50;10454526;28;20285;-84
2023/01/12 01:52:13;;;;;;;4.43;1.03;;;;;;;7.95;78.38;99974.72;10463047;28;20207;-84
2023/01/12 01:57:15;;;;;;;7.87;1.87;;;;;;;7.45;80.96;99985.63;10501696;28;20183;-83
2023/01/12 02:02:18;;;;;;;4.83;1.40;;;;;;;8.11;78.68;99951.75;10500349;28;20654;-84
2023/01/12 02:07:20;;;;;;;8.43;1.40;;;;;;;8.00;77.76;99966.22;10483907;28;20264;-83
2023/01/12 02:18:11;;;;;;;9.30;2.03;;;;;;;7.76;77.84;99936.50;10501639;28;20183;-83
2023/01/12 02:23:41;;;;;;;11.47;1.60;;;;;;;8.27;76.32;99921.59;10497433;28;20198;-84
2023/01/12 02:29:12;;;;;;;4.90;1.70;;;;;;;8.16;76.37;99939.69;10500633;28;20211;-83
2023/01/12 02:34:23;;;;;;;8.57;1.97;;;;;;;7.74;78.76;99924.81;10476786;28;20287;-84
2023/01/12 02:39:29;;;;;;;8.23;1.70;;;;;;;8.12;77.26;99907.91;10481633;28;20191;-84
2023/01/12 02:44:39;;;;;;;7.87;2.13;;;;;;;8.30;77.52;99898.63;10459741;28;20211;-84
2023/01/12 02:49:44;;;;;;;10.93;1.90;;;;;;;7.69;78.68;99888.63;10485237;28;20195;-85
2023/01/12 02:54:47;;;;;;;8.97;1.90;;;;;;;8.03;78.59;99893.00;10441929;28;20469;-84
2023/01/12 02:59:51;;;;;;;9.67;2.20;;;;;;;7.94;78.41;99892.06;10458598;28;20191;-85
2023/01/12 03:04:54;;;;;;;11.63;2.40;;;;;;;7.72;78.92;99882.41;10441551;28;20219;-84
2023/01/12 03:10:12;;;;;;;12.17;2.37;;;;;;;8.13;79.04;99860.09;10484375;28;20191;-83
2023/01/12 03:15:16;;;;;;;7.97;1.77;;;;;;;8.13;78.47;99853.69;10480812;28;20199;-84
2023/01/12 03:20:27;;;;;;;9.37;1.90;;;;;;;7.75;79.99;99847.47;10450886;28;20195;-86
2023/01/12 03:25:30;;;;;;;11.23;1.53;;;;;;;7.86;79.99;99838.56;10481683;28;20211;-85
2023/01/12 03:30:36;;;;;;;10.53;1.90;;;;;;;7.66;80.32;99838.16;10486023;28;20272;-86
2023/01/12 03:35:44;;;;;;;8.80;1.57;;;;;;;8.04;78.92;99822.03;10481234;28;20269;-85
2023/01/12 03:40:54;;;;;;;8.93;1.50;;;;;;;7.72;79.88;99825.78;10497194;28;20673;-85
2023/01/12 03:46:03;;;;;;;9.13;1.67;;;;;;;7.63;80.31;99810.84;10488482;28;20219;-85
2023/01/12 03:51:13;;;;;;;12.10;2.13;;;;;;;7.85;80.01;99803.41;10495781;28;20232;-85
2023/01/12 03:56:17;;;;;;;8.57;1.63;;;;;;;7.54;79.61;99816.34;10485237;28;20199;-86
2023/01/12 04:01:19;;;;;;;9.63;1.50;;;;;;;8.07;79.61;99813.03;10476721;28;20209;-85
2023/01/12 04:06:22;;;;;;;7.90;1.37;;;;;;;7.78;79.55;99786.25;10489992;28;20242;-85
2023/01/12 04:16:45;;;;;;;8.03;1.20;;;;;;;7.73;79.24;99789.16;10485234;28;20588;-85
2023/01/12 04:27:09;;;;;;;6.37;1.53;;;;;;;8.06;78.96;99763.91;10469509;28;20265;-84
2023/01/12 04:32:11;;;;;;;4.80;1.00;;;;;;;8.10;78.74;99765.78;10485259;28;20272;-85
2023/01/12 04:37:13;;;;;;;3.00;0.67;;;;;;;7.74;79.40;99757.31;10471467;28;20253;-84
2023/01/12 04:47:36;;;;;;;5.23;0.93;;;;;;;7.96;79.35;99742.63;10473183;28;20223;-85
2023/01/12 04:52:39;;;;;;;7.23;0.87;;;;;;;8.53;78.66;99731.81;10462958;28;20196;-85
2023/01/12 04:57:41;;;;;;;6.23;1.20;;;;;;;8.10;79.77;99731.44;10502371;28;20791;-85
2023/01/12 05:02:43;;;;;;;2.83;0.80;;;;;;;7.88;80.46;99724.63;10498183;28;20191;-84
2023/01/12 05:13:06;;;;;;;5.63;0.90;;;;;;;7.70;81.23;99696.84;10506058;28;20198;-84
2023/01/12 05:18:08;;;;;;;7.03;0.80;;;;;;;7.53;82.13;99700.25;10500086;28;20188;-84
2023/01/12 05:23:10;;;;;;;3.23;0.60;;;;;;;7.92;80.64;99696.06;10508355;28;20191;-83
2023/01/12 05:28:13;;;;;;;3.00;0.40;;;;;;;7.86;80.83;99685.00;10484895;28;20269;-84
2023/01/12 05:33:15;;;;;;;4.97;0.53;;;;;;;7.94;80.77;99671.47;10502660;28;20192;-83
2023/01/12 05:38:19;;;;;;;2.77;0.50;;;;;;;7.93;81.47;99667.84;10479913;28;20266;-82
2023/01/12 05:48:42;;;;;;;4.10;0.60;;;;;;;7.68;80.76;99649.69;10454816;28;20261;-82
2023/01/12 05:53:44;;;;;;;2.47;0.50;;;;;;;7.63;81.56;99627.47;10502528;28;20245;-82
2023/01/12 05:58:51;;;;;;;1.57;0.30;;;;;;;7.80;80.61;99616.47;10492070;28;20241;-82
2023/01/12 06:03:58;;;;;;;2.13;0.60;;;;;;;7.47;81.51;99618.59;10484978;28;20249;-82
2023/01/12 06:09:01;;;;;;;0.87;0.40;;;;;;;7.51;82.65;99596.50;10487096;28;20219;-83
2023/01/12 06:14:04;;;;;;;2.50;0.30;;;;;;;7.25;82.18;99575.88;10470083;28;20296;-83
2023/01/12 06:19:07;;;;;;;2.00;0.40;;;;;;;7.06;82.50;99596.34;10499452;28;20214;-82
2023/01/12 06:24:11;;;;;;;1.03;0.30;;;;;;;6.79;83.05;99585.19;10474793;28;20195;-84
2023/01/12 06:29:13;;;;;;;2.07;0.30;;;;;;;7.39;80.68;99576.66;10481983;28;20539;-83
2023/01/12 06:34:15;;;;;;;0.63;0.20;;;;;;;7.64;80.50;99581.69;10476407;28;20215;-83
2023/01/12 06:39:17;;;;;;;2.37;0.50;;;;;;;7.50;81.75;99578.09;10495217;28;20717;-84
2023/01/12 06:44:19;;;;;;;1.40;0.20;;;;;;;7.55;80.85;99566.00;10472503;28;20237;-83
2023/01/12 06:49:21;;;;;;;3.10;0.40;;;;;;;7.44;82.43;99537.50;10465394;28;20532;-83
2023/01/12 06:54:24;;;;;;;1.23;0.30;;;;;;;7.24;83.75;99538.78;10458771;28;20534;-84
2023/01/12 06:59:26;;;;;;;1.73;0.30;;;;;;;7.52;82.04;99545.13;10485291;28;20190;-84
2023/01/12 07:04:28;;;;;;;0.23;0.10;;;;;;;7.36;80.86;99563.34;10480447;28;20261;-84
2023/01/12 07:09:30;;;;;;;0.40;0.20;;;;;;;7.28;82.75;99552.94;10490192;28;20378;-84
2023/01/12 07:14:32;;;;;;;0.70;0.13;;;;;;;6.99;83.38;99551.31;10470894;28;20195;-84
2023/01/12 07:19:34;;;;;;;1.37;0.20;;;;;;;7.22;82.93;99548.59;10483125;28;20253;-83
2023/01/12 07:24:37;;;;;;;1.03;0.17;;;;;;;6.99;84.54;99551.31;10483153;28;20436;-84
2023/01/12 07:29:39;;;;;;;2.20;0.40;;;;;;;7.33;82.79;99536.09;10480637;28;20223;-83
2023/01/12 07:34:41;;;;;;;0.30;0.13;;;;;;;7.82;82.11;99547.19;10477175;28;20315;-84
2023/01/12 07:39:43;;;;;;;1.00;0.30;;;;;;;7.19;84.20;99540.88;10484807;28;20195;-84
2023/01/12 07:44:45;;;;;;;0.63;0.33;;;;;;;7.66;83.13;99534.75;10499784;28;20645;-84
2023/01/12 07:49:47;;;;;;;1.77;0.33;;;;;;;7.50;83.84;99534.28;10507564;28;20275;-83
2023/01/12 07:54:49;;;;;;;0.73;0.30;;;;;;;7.44;84.48;99545.88;10492797;28;20195;-84
2023/01/12 07:59:51;;;;;;;1.33;0.40;;;;;;;7.40;83.98;99547.63;10493148;28;20187;-83
2023/01/12 08:04:54;;;;;;;2.83;0.70;;;;;;;8.11;82.45;99545.94;10481768;28;20211;-84
2023/01/12 08:09:56;;;;;;;2.47;1.13;;;;;;;7.72;83.03;99547.41;10470095;28;20220;-84
2023/01/12 08:14:59;;;;;;;2.20;0.90;;;;;;;8.43;81.09;99531.69;10497826;28;20258;-84
2023/01/12 08:20:08;;;;;;;3.77;0.70;;;;;;;8.00;83.63;99536.13;10489666;28;20191;-84
2023/01/12 08:25:16;;;;;;;2.10;0.73;;;;;;;8.44;81.73;99530.53;10456012;28;20285;-84
2023/01/12 08:30:20;;;;;;;3.10;0.43;;;;;;;8.22;83.68;99528.63;10483843;28;20531;-82
2023/01/12 08:35:24;;;;;;;4.50;0.60;;;;;;;8.39;82.99;99544.63;10475659;28;20528;-84
2023/01/12 08:41:31;;;;;;;4.30;1.23;;;;;;;8.23;83.62;99524.69;10466513;28;20221;-85
2023/01/12 08:45:48;;;;;;;2.87;0.63;;;;;;;8.43;83.17;99528.88;10500056;28;20225;-83
2023/01/12 08:50:50;;;;;;;3.00;0.40;;;;;;;8.66;82.71;99520.44;10494036;28;20191;-83
2023/01/12 08:55:53;;;;;;;4.10;0.60;;;;;;;8.36;82.59;99534.13;10485101;28;20252;-83
2023/01/12 09:00:55;;;;;;;2.37;0.70;;;;;;;7.94;84.42;99529.88;10478111;28;20250;-83
2023/01/12 09:05:57;;;;;;;2.07;0.37;;;;;;;8.01;83.62;99523.81;10481886;28;20222;-83
2023/01/12 09:11:04;;;;;;;1.37;0.67;;;;;;;8.54;82.65;99546.19;10477889;28;20519;-82
2023/01/12 09:16:11;;;;;;;4.37;0.40;;;;;;;9.02;81.27;99551.03;10479711;28;20241;-82
2023/01/12 09:21:19;;;;;;;0.97;0.37;;;;;;;8.72;82.64;99545.16;10465151;28;20211;-83
2023/01/12 09:26:25;;;;;;;3.80;0.40;;;;;;;8.67;82.73;99552.84;10476978;28;20247;-82
2023/01/12 09:31:29;;;;;;;3.20;0.47;;;;;;;8.69;81.44;99559.75;10475234;28;20191;-83
2023/01/12 09:36:33;;;;;;;1.70;0.30;;;;;;;8.32;84.08;99566.63;10488632;28;20304;-83
2023/01/12 09:47:14;;;;;;;1.70;0.20;;;;;;;8.99;81.24;99572.06;10465280;28;20246;-83
2023/01/12 09:52:20;;;;;;;1.90;0.30;;;;;;;9.26;81.14;99571.00;10486696;28;20642;-84
2023/01/12 09:57:38;;;;;;;1.07;0.20;;;;;;;8.95;81.91;99593.44;10481420;28;20191;-83
2023/01/12 10:02:51;;;;;;;2.47;0.47;;;;;;;9.37;81.38;99596.72;10473662;28;20199;-83
2023/01/12 10:07:54;;;;;;;1.90;0.50;;;;;;;9.27;80.34;99604.25;10468949;28;20219;-83
2023/01/12 10:12:59;;;;;;;2.27;0.20;;;;;;;9.56;79.47;99589.69;10477286;28;20230;-83
2023/01/12 10:18:26;;;;;;;1.67;0.30;;;;;;;9.15;80.74;99600.44;10496422;28;20584;-83
2023/01/12 10:23:28;;;;;;;1.63;0.20;;;;;;;9.36;79.70;99595.06;10461052;28;20248;-83
2023/01/12 10:28:32;;;;;;;1.73;0.30;;;;;;;9.13;80.41;99611.94;10479480;28;20280;-83
2023/01/12 10:33:34;;;;;;;1.00;0.40;;;;;;;8.83;81.38;99612.78;10476322;28;20195;-83
2023/01/12 10:38:39;;;;;;;1.57;0.30;;;;;;;8.91;81.56;99603.59;10462042;28;20219;-84
2023/01/12 10:43:43;;;;;;;1.03;0.47;;;;;;;9.11;79.93;99625.44;10495104;28;20245;-84
2023/01/12 10:48:47;;;;;;;2.53;0.20;;;;;;;9.06;80.67;99617.16;10474336;28;20281;-84
2023/01/12 10:53:56;;;;;;;1.73;0.40;;;;;;;9.30;81.92;99611.16;10482933;28;20263;-82
2023/01/12 10:59:00;;;;;;;1.53;0.20;;;;;;;9.79;79.64;99601.59;10478865;28;20534;-82
2023/01/12 11:04:04;;;;;;;0.90;0.20;;;;;;;9.43;81.54;99606.63;10486277;28;20269;-82
2023/01/12 11:09:17;;;;;;;0.80;0.17;;;;;;;9.18;82.63;99600.59;10496272;28;20321;-82
2023/01/12 11:14:25;;;;;;;0.80;0.27;;;;;;;9.48;81.69;99598.06;10494370;28;20649;-82
2023/01/12 11:19:37;;;;;;;0.63;0.27;;;;;;;9.52;82.54;99601.88;10482652;28;20195;-83
2023/01/12 11:24:42;;;;;;;1.20;0.30;;;;;;;9.32;83.69;99595.69;10488691;28;20192;-83
2023/01/12 11:29:58;;;;;;;1.27;0.30;;;;;;;9.23;83.25;99589.25;10500415;28;20272;-83
2023/01/12 11:35:25;;;;;;;1.23;0.43;;;;;;;9.45;82.09;99609.91;10488868;28;20242;-83
2023/01/12 11:40:30;;;;;;;1.90;0.30;;;;;;;9.48;82.97;99592.47;10474903;28;20199;-82
2023/01/12 11:45:40;;;;;;;2.43;0.83;;;;;;;9.49;81.79;99583.75;10489040;28;20596;-83
2023/01/12 11:50:43;;;;;;;2.30;0.23;;;;;;;10.07;80.52;99587.25;10485217;28;20215;-83
2023/01/12 11:56:05;;;;;;;0.77;0.30;;;;;;;9.82;81.03;99586.91;10482809;28;20234;-83
2023/01/12 12:01:52;;;;;;;2.60;0.30;;;;;;;9.70;81.76;99583.13;10488955;28;20199;-83
2023/01/12 12:07:16;;;;;;;2.10;0.30;;;;;;;9.80;81.51;99575.22;10434280;28;20243;-83
2023/01/12 12:12:45;;;;;;;0.67;0.33;;;;;;;9.48;81.96;99570.09;10475397;28;20477;-84
2023/01/12 12:17:57;;;;;;;1.00;0.30;;;;;;;9.57;81.50;99573.72;10501998;28;20542;-83
2023/01/12 12:23:30;;;;;;;1.83;0.30;;;;;;;10.10;80.95;99570.59;10449980;28;20184;-83
2023/01/12 12:28:51;;;;;;;1.83;0.57;;;;;;;9.57;82.36;99579.31;10476546;28;20219;-84
2023/01/12 12:34:21;;;;;;;2.30;0.23;;;;;;;9.34;83.22;99583.34;10512827;28;20218;-84
2023/01/12 12:39:27;;;;;;;1.90;0.30;;;;;;;9.72;81.61;99581.63;10496003;28;20252;-83
2023/01/12 12:50:19;;;;;;;0.50;0.23;;;;;;;9.69;83.40;99587.06;10497350;28;20264;-84
2023/01/12 12:55:21;;;;;;;1.63;0.53;;;;;;;9.83;82.46;99580.16;10482092;28;20248;-83
2023/01/12 13:00:29;;;;;;;1.77;0.20;;;;;;;9.62;83.48;99581.97;10480138;28;20233;-83
2023/01/12 13:05:46;;;;;;;2.30;0.33;;;;;;;9.72;83.00;99576.03;10463716;28;20200;-83
2023/01/12 13:10:56;;;;;;;0.27;0.20;;;;;;;9.34;84.12;99564.59;10480071;28;20272;-83
2023/01/12 13:16:42;;;;;;;2.37;0.30;;;;;;;9.45;83.51;99553.94;10467138;28;20217;-83
2023/01/12 13:21:56;;;;;;;1.47;0.40;;;;;;;10.36;80.17;99550.94;10461032;28;20616;-83
2023/01/12 13:27:00;;;;;;;2.43;0.20;;;;;;;9.66;81.11;99563.38;10499569;28;20465;-83
2023/01/12 13:32:30;;;;;;;0.30;0.10;;;;;;;9.27;81.60;99556.69;10492839;28;20253;-83
2023/01/12 13:37:56;;;;;;;1.60;0.10;;;;;;;9.71;80.66;99551.97;10501380;28;20249;-83
2023/01/12 13:43:15;;;;;;;0.73;0.17;;;;;;;10.00;80.52;99557.75;10487006;28;20256;-84
2023/01/12 13:48:18;;;;;;;2.10;0.20;;;;;;;9.59;80.49;99549.00;10473122;28;20203;-84
2023/01/12 13:53:26;;;;;;;1.83;0.20;;;;;;;10.01;80.59;99556.59;10468533;28;20228;-84
2023/01/12 13:58:39;;;;;;;1.70;0.20;;;;;;;10.12;79.76;99556.25;10491019;28;20241;-83
2023/01/12 14:04:03;;;;;;;1.53;0.30;;;;;;;9.89;81.40;99570.44;10458136;28;20204;-83
2023/01/12 14:09:09;;;;;;;2.17;0.20;;;;;;;9.76;80.82;99565.00;10478267;28;20311;-83
2023/01/12 14:20:00;;;;;;;1.80;0.10;;;;;;;9.85;81.68;99561.06;10482619;28;20252;-83
2023/01/12 14:25:16;;;;;;;1.60;0.30;;;;;;;9.60;82.33;99565.50;10472494;28;20481;-83
2023/01/12 14:30:20;;;;;;;0.85;0.20;;;;;;;9.53;81.20;99567.13;10489943;28;20222;-83
2023/01/12 14:35:23;;;;;;;1.27;0.20;;;;;;;9.68;82.77;99563.84;10475017;28;20250;-83
2023/01/12 14:40:30;;;;;;;0.63;0.30;;;;;;;9.71;81.48;99562.38;10460059;28;20245;-84
2023/01/12 14:51:09;;;;;;;0.30;0.20;;;;;;;9.39;83.38;99541.22;10471171;28;20289;-82
2023/01/12 14:56:17;;;;;;;0.87;0.30;;;;;;;9.51;83.35;99535.84;10482560;28;20280;-83
2023/01/12 15:01:31;;;;;;;1.80;0.20;;;;;;;9.33;83.86;99546.16;10485660;28;20191;-83
2023/01/12 15:06:37;;;;;;;0.47;0.40;;;;;;;9.78;81.18;99535.53;10473936;28;20249;-83
2023/01/12 15:11:40;;;;;;;0.93;0.20;;;;;;;9.95;81.46;99523.47;10480924;28;20285;-83
2023/01/12 15:27:28;;;;;;;2.57;0.50;;;;;;;9.54;83.27;99527.59;10473482;28;20863;-83
2023/01/12 15:32:33;;;;;;;0.90;0.40;;;;;;;9.81;82.10;99518.03;10489508;28;20500;-83
2023/01/12 15:37:52;;;;;;;0.77;0.40;;;;;;;9.57;83.57;99514.91;10485758;28;20222;-85
2023/01/12 15:42:54;;;;;;;1.10;0.50;;;;;;;10.02;81.16;99527.44;10481622;28;20203;-86
2023/01/12 15:47:56;;;;;;;1.23;0.60;;;;;;;9.55;83.15;99531.22;10484263;28;20537;-84
2023/01/12 15:52:59;;;;;;;0.97;0.47;;;;;;;9.78;81.94;99527.13;10491269;28;20268;-83
2023/01/12 15:58:01;;;;;;;1.27;0.60;;;;;;;9.87;82.70;99522.34;10483369;28;20183;-84
2023/01/12 16:03:05;;;;;;;0.40;0.40;;;;;;;9.52;82.63;99509.50;10466579;28;20208;-84
2023/01/12 16:08:07;;;;;;;0.87;0.40;;;;;;;9.54;83.00;99512.78;10482543;28;20551;-85
2023/01/12 16:13:10;;;;;;;2.10;0.50;;;;;;;10.12;80.61;99508.63;10484664;28;20312;-83
2023/01/12 16:18:15;;;;;;;1.37;0.53;;;;;;;10.09;81.28;99507.31;10474723;28;20214;-81
2023/01/12 16:23:17;;;;;;;4.00;1.20;;;;;;;10.17;81.54;99503.69;10474200;28;20277;-82
2023/01/12 16:28:19;;;;;;;0.80;0.30;;;;;;;9.72;82.59;99506.03;10471018;28;20239;-83
2023/01/12 16:33:21;;;;;;;2.17;0.60;;;;;;;9.77;82.17;99500.28;10472792;28;20332;-83
2023/01/12 16:38:24;;;;;;;0.93;0.30;;;;;;;9.46;83.49;99514.41;10449755;28;20592;-85
2023/01/12 16:43:28;;;;;;;1.40;0.50;;;;;;;9.39;84.22;99494.47;10473327;28;20227;-84
2023/01/12 16:48:32;;;;;;;1.20;0.40;;;;;;;9.36;84.73;99497.09;10454116;28;20239;-83
2023/01/12 16:53:34;;;;;;;1.20;0.50;;;;;;;9.94;82.26;99486.22;10458625;28;20714;-82
2023/01/12 16:58:37;;;;;;;2.03;0.70;;;;;;;9.80;82.07;99479.97;10473265;28;20214;-83
2023/01/12 17:03:42;;;;;;;0.67;0.67;;;;;;;10.07;80.56;99486.38;10502968;28;20240;-85
2023/01/12 17:08:45;;;;;;;2.17;0.77;;;;;;;9.62;83.83;99478.38;10448213;28;20254;-83
2023/01/12 17:13:53;;;;;;;2.10;0.80;;;;;;;9.55;84.19;99480.81;10465912;28;20223;-81
2023/01/12 17:18:55;;;;;;;0.70;0.53;;;;;;;9.59;83.42;99467.81;10454070;28;20280;-83
2023/01/12 17:23:58;;;;;;;0.97;0.83;;;;;;;9.50;83.12;99479.03;10463300;28;20224;-84
2023/01/12 17:29:00;;;;;;;4.17;0.80;;;;;;;9.28;83.64;99462.38;10450518;28;20238;-82
2023/01/12 17:34:03;;;;;;;1.60;0.50;;;;;;;9.47;83.74;99467.66;10465590;28;20713;-84
2023/01/12 17:39:06;;;;;;;0.63;0.57;;;;;;;9.85;82.84;99468.63;10474745;28;20255;-82
2023/01/12 17:44:08;;;;;;;3.10;0.60;;;;;;;9.48;83.73;99469.31;10462495;28;20281;-84
2023/01/12 17:49:12;;;;;;;1.47;0.67;;;;;;;9.22;85.17;99478.47;10475793;28;20240;-83
2023/01/12 17:54:15;;;;;;;1.67;0.43;;;;;;;9.59;83.50;99477.03;10450669;28;20188;-84
2023/01/12 17:59:19;;;;;;;1.23;0.50;;;;;;;9.34;84.23;99469.44;10473325;28;20551;-84
2023/01/12 18:04:22;;;;;;;1.50;0.40;;;;;;;9.54;83.52;99462.41;10443989;28;20348;-83
2023/01/12 18:09:26;;;;;;;0.90;0.67;;;;;;;9.17;85.21;99467.44;10457026;28;20712;-83
2023/01/12 18:14:29;;;;;;;1.50;0.43;;;;;;;9.47;83.94;99460.09;10471080;28;20626;-83
2023/01/12 18:19:32;;;;;;;2.03;0.40;;;;;;;9.58;82.57;99466.16;10449154;28;20226;-83
2023/01/12 18:24:34;;;;;;;1.47;0.70;;;;;;;10.07;81.88;99455.53;10463641;28;20282;-83
2023/01/12 18:29:37;;;;;;;2.43;0.83;;;;;;;9.27;85.07;99463.53;10473100;28;20242;-83
2023/01/12 18:34:48;;;;;;;1.33;0.67;;;;;;;9.44;83.70;99445.91;10442398;28;20270;-83
2023/01/12 18:39:50;;;;;;;1.00;0.60;;;;;;;8.87;85.57;99462.78;10473524;28;20288;-82
2023/01/12 18:44:52;;;;;;;0.80;0.60;;;;;;;9.52;84.53;99447.91;10454572;28;20595;-83
2023/01/12 18:49:57;;;;;;;1.57;0.80;;;;;;;9.57;83.16;99461.72;10450737;28;20265;-83
2023/01/12 18:54:59;;;;;;;3.83;0.67;;;;;;;9.71;83.24;99453.97;10469715;28;20326;-80
2023/01/12 19:00:13;;;;;;;1.57;0.50;;;;;;;9.88;81.15;99455.94;10478457;28;20540;-81
2023/01/12 19:05:30;;;;;;;1.30;0.60;;;;;;;9.70;82.91;99452.31;10463546;28;20262;-82
2023/01/12 19:10:32;;;;;;;2.87;0.60;;;;;;;9.53;83.75;99455.16;10448296;28;20258;-80
2023/01/12 19:31:39;;;;;;;0.70;0.37;;;;;;;9.65;83.29;99458.13;10473417;28;20663;-81
2023/01/12 19:36:41;;;;;;;0.70;0.50;;;;;;;9.67;82.35;99446.59;10480359;28;20255;-81
2023/01/12 19:47:04;;;;;;;2.10;0.50;;;;;;;9.93;82.27;99430.56;10473393;28;20698;-82
2023/01/12 19:52:06;;;;;;;1.90;0.53;;;;;;;9.49;82.46;99440.16;10481379;28;20239;-83
2023/01/12 19:57:08;;;;;;;1.87;0.43;;;;;;;9.54;84.05;99428.81;10474929;28;20276;-82
2023/01/12 20:02:11;;;;;;;0.70;0.40;;;;;;;9.57;83.25;99416.94;10481863;28;20276;-82
2023/01/12 20:07:13;;;;;;;2.03;0.50;;;;;;;10.10;80.36;99435.28;10473413;28;20277;-83
2023/01/12 20:12:16;;;;;;;2.07;0.40;;;;;;;9.90;80.94;99425.63;10465881;28;20243;-83
2023/01/12 20:17:18;;;;;;;4.10;1.07;;;;;;;9.74;81.56;99430.91;10472850;28;20285;-83
2023/01/12 20:22:20;;;;;;;2.03;0.70;;;;;;;9.81;81.67;99433.19;10479755;28;20257;-82
2023/01/12 20:27:23;;;;;;;1.60;0.50;;;;;;;9.60;81.26;99441.47;10491569;28;20603;-81
2023/01/12 20:32:30;;;;;;;1.93;0.47;;;;;;;9.41;82.37;99441.00;10464777;28;20264;-80
2023/01/12 20:37:32;;;;;;;1.07;0.50;;;;;;;9.93;81.28;99445.38;10475430;28;20302;-82
2023/01/12 20:42:35;;;;;;;1.20;0.43;;;;;;;9.72;81.95;99441.63;10485422;28;20191;-84
2023/01/12 20:47:38;;;;;;;2.30;0.77;;;;;;;9.78;81.58;99429.09;10474848;28;20199;-83
2023/01/12 20:52:40;;;;;;;3.33;0.60;;;;;;;9.88;81.07;99431.56;10472870;28;20276;-82
2023/01/12 20:57:42;;;;;;;2.07;0.53;;;;;;;10.39;79.07;99426.94;10482397;28;20224;-83
2023/01/12 21:02:45;;;;;;;1.00;0.30;;;;;;;9.90;81.56;99429.25;10463622;28;20265;-82
2023/01/12 21:07:47;;;;;;;0.57;0.20;;;;;;;10.05;80.60;99429.88;10461451;28;21065;-83
2023/01/12 21:12:55;;;;;;;7.93;0.50;;;;;;;9.82;80.65;99430.06;10480105;28;20763;-82
2023/01/12 21:17:57;;;;;;;1.40;0.40;;;;;;;9.36;84.12;99421.53;10467957;28;20845;-81
2023/01/12 21:23:00;;;;;;;0.57;0.20;;;;;;;9.56;82.25;99424.50;10461361;28;20228;-82
2023/01/12 21:28:02;;;;;;;0.83;0.20;;;;;;;9.42;83.87;99411.84;10457509;28;20207;-82
2023/01/12 21:33:05;;;;;;;0.10;0.10;;;;;;;9.59;81.83;99409.03;10465855;28;20250;-82
2023/01/12 21:38:08;;;;;;;0.57;0.20;;;;;;;9.37;82.20;99406.38;10469082;28;20262;-82
2023/01/12 21:43:12;;;;;;;1.07;0.10;;;;;;;9.99;79.26;99402.03;10468366;28;20200;-82
2023/01/12 21:48:16;;;;;;;2.33;0.37;;;;;;;10.32;78.18;99393.81;10462585;28;20649;-83
2023/01/12 21:53:20;;;;;;;0.57;0.20;;;;;;;9.68;81.02;99398.63;10476805;28;20276;-83
2023/01/12 21:58:23;;;;;;;1.60;0.10;;;;;;;9.05;83.35;99404.88;10464998;28;20362;-83
2023/01/12 22:03:27;;;;;;;0.23;0.10;;;;;;;9.72;81.11;99408.00;10473372;28;20692;-82
2023/01/12 22:08:29;;;;;;;0.50;0.10;;;;;;;9.53;81.21;99415.97;10459762;28;20268;-82
2023/01/12 22:13:32;;;;;;;0.20;0.20;;;;;;;9.94;80.61;99427.41;10453586;28;20231;-83
2023/01/12 22:18:35;;;;;;;0.30;0.20;;;;;;;9.94;80.77;99415.38;10479563;28;20199;-83
2023/01/12 22:23:38;;;;;;;0.83;0.37;;;;;;;9.82;81.16;99418.03;10469895;28;20535;-82
2023/01/12 22:28:43;;;;;;;0.23;0.20;;;;;;;9.86;81.31;99396.63;10460762;28;20256;-82
2023/01/12 22:33:46;;;;;;;1.13;0.30;;;;;;;9.74;80.97;99394.50;10463909;28;20250;-83
2023/01/12 22:38:49;;;;;;;0.63;0.33;;;;;;;9.82;81.04;99390.84;10455520;28;20226;-82
2023/01/12 22:43:51;;;;;;;0.30;0.20;;;;;;;10.11;79.94;99394.88;10473160;28;20672;-80
2023/01/12 22:48:55;;;;;;;1.30;0.30;;;;;;;9.99;79.61;99398.41;10469657;28;20332;-82
2023/01/12 22:53:58;;;;;;;0.77;0.30;;;;;;;9.78;81.55;99381.50;10473105;28;20254;-81
2023/01/12 22:59:00;;;;;;;0.60;0.30;;;;;;;9.79;80.80;99379.53;10485970;28;20199;-82
2023/01/12 23:04:03;;;;;;;0.93;0.40;;;;;;;9.78;81.59;99377.88;10502511;28;20256;-81
2023/01/12 23:09:06;;;;;;;3.83;0.30;;;;;;;10.14;79.17;99381.03;10471750;28;20611;-83
2023/01/12 23:14:08;;;;;;;0.90;0.27;;;;;;;10.27;78.48;99384.78;10494822;28;20301;-81
2023/01/12 23:19:11;;;;;;;0.20;0.10;;;;;;;9.99;79.40;99385.22;10473042;28;20223;-81
2023/01/12 23:24:13;;;;;;;0.33;0.23;;;;;;;9.97;80.94;99381.91;10476786;28;20199;-80
2023/01/12 23:29:16;;;;;;;0.53;0.20;;;;;;;10.24;80.08;99366.66;10487402;28;20233;-81
2023/01/12 23:34:18;;;;;;;1.40;0.20;;;;;;;9.90;81.02;99370.41;10478619;28;20304;-80
2023/01/12 23:39:21;;;;;;;0.50;0.20;;;;;;;9.90;81.57;99364.00;10475324;28;20207;-81
2023/01/12 23:44:24;;;;;;;0.40;0.10;;;;;;;9.88;81.03;99361.53;10465592;28;20203;-81
2023/01/12 23:49:26;;;;;;;0.63;0.20;;;;;;;10.06;80.09;99362.25;10476796;28;20210;-81
2023/01/12 23:54:29;;;;;;;0.20;0.20;;;;;;;9.85;81.77;99356.59;10461512;28;20331;-84
2023/01/12 23:59:31;;;;;;;0.67;0.10;;;;;;;9.99;81.64;99351.59;10478989;28;20304;-81
